JAL687 RJTT-RJFT
Flight info
| Callsign | JAL687 |
|---|---|
| Flight time | 1h 34m |
| Altitude | 28000 |
| Route | NINOX Y28 ONDOC Y452 OOITA Y40 KAZMA |
| Aircraft | B738/M-SDE2E3FGHIRWXY/LB1 |
Departure
| Time | 2026-05-05 04:53 |
|---|---|
| Airport | Tokyo Haneda International Airport (RJTT) |
Arrival
| Time | 2026-05-05 06:28 |
|---|---|
| Airport | Kumamoto Airport (RJFT) |
| Time | Latitude | Longitude | Altitude | Speed | Heading |
|---|---|---|---|---|---|
| 2026-05-05 04:28 | 35.54475 | 139.78580 | 30 ft | 0 kts | 332° |
| 2026-05-05 04:29 | 35.54474 | 139.78580 | 30 ft | 0 kts | 332° |
| 2026-05-05 04:41 | 35.54465 | 139.78586 | 29 ft | 4 kts | 332° |
| 2026-05-05 04:42 | 35.54442 | 139.78601 | 32 ft | 2 kts | 332° |
| 2026-05-05 04:42 | 35.54422 | 139.78610 | 27 ft | 4 kts | 14° |
| 2026-05-05 04:42 | 35.54401 | 139.78594 | 26 ft | 4 kts | 52° |
| 2026-05-05 04:42 | 35.54393 | 139.78580 | 29 ft | 1 kts | 60° |
| 2026-05-05 04:45 | 35.54395 | 139.78584 | 29 ft | 2 kts | 60° |
| 2026-05-05 04:45 | 35.54394 | 139.78629 | 27 ft | 8 kts | 128° |
| 2026-05-05 04:46 | 35.54331 | 139.78632 | 28 ft | 8 kts | 225° |
| 2026-05-05 04:46 | 35.54299 | 139.78570 | 32 ft | 10 kts | 240° |
| 2026-05-05 04:46 | 35.54270 | 139.78507 | 24 ft | 15 kts | 239° |
| 2026-05-05 04:46 | 35.54256 | 139.78402 | 24 ft | 13 kts | 309° |
| 2026-05-05 04:47 | 35.54334 | 139.78343 | 22 ft | 14 kts | 330° |
| 2026-05-05 04:47 | 35.54434 | 139.78274 | 22 ft | 18 kts | 330° |
| 2026-05-05 04:47 | 35.54544 | 139.78194 | 20 ft | 18 kts | 330° |
| 2026-05-05 04:47 | 35.54651 | 139.78119 | 22 ft | 17 kts | 329° |
| 2026-05-05 04:48 | 35.54753 | 139.78046 | 22 ft | 17 kts | 330° |
| 2026-05-05 04:48 | 35.54853 | 139.77976 | 22 ft | 16 kts | 330° |
| 2026-05-05 04:48 | 35.54948 | 139.77909 | 21 ft | 15 kts | 330° |
| 2026-05-05 04:48 | 35.55039 | 139.77844 | 23 ft | 15 kts | 330° |
| 2026-05-05 04:49 | 35.55127 | 139.77781 | 22 ft | 14 kts | 330° |
| 2026-05-05 04:49 | 35.55211 | 139.77722 | 23 ft | 14 kts | 330° |
| 2026-05-05 04:49 | 35.55291 | 139.77665 | 21 ft | 13 kts | 330° |
| 2026-05-05 04:49 | 35.55368 | 139.77611 | 21 ft | 13 kts | 330° |
| 2026-05-05 04:50 | 35.55443 | 139.77558 | 23 ft | 12 kts | 329° |
| 2026-05-05 04:50 | 35.55517 | 139.77505 | 23 ft | 12 kts | 330° |
| 2026-05-05 04:50 | 35.55589 | 139.77453 | 22 ft | 12 kts | 329° |
| 2026-05-05 04:50 | 35.55660 | 139.77402 | 22 ft | 12 kts | 330° |
| 2026-05-05 04:51 | 35.55729 | 139.77353 | 22 ft | 11 kts | 324° |
| 2026-05-05 04:51 | 35.55746 | 139.77266 | 20 ft | 11 kts | 245° |
| 2026-05-05 04:51 | 35.55687 | 139.77205 | 24 ft | 11 kts | 214° |
| 2026-05-05 04:51 | 35.55643 | 139.77171 | 25 ft | 6 kts | 200° |
| 2026-05-05 04:52 | 35.55603 | 139.77187 | 24 ft | 6 kts | 148° |
| 2026-05-05 04:52 | 35.55565 | 139.77215 | 25 ft | 7 kts | 150° |
| 2026-05-05 04:52 | 35.55369 | 139.77354 | 22 ft | 69 kts | 150° |
| 2026-05-05 04:52 | 35.54737 | 139.77804 | 22 ft | 137 kts | 150° |
| 2026-05-05 04:53 | 35.53772 | 139.78429 | 331 ft | 167 kts | 149° |
| 2026-05-05 04:53 | 35.52729 | 139.79120 | 1098 ft | 173 kts | 149° |
| 2026-05-05 04:53 | 35.51647 | 139.79931 | 1733 ft | 190 kts | 147° |
| 2026-05-05 04:53 | 35.50509 | 139.80821 | 2394 ft | 202 kts | 148° |
| 2026-05-05 04:54 | 35.49217 | 139.81747 | 2727 ft | 225 kts | 150° |
| 2026-05-05 04:54 | 35.47830 | 139.82714 | 3225 ft | 239 kts | 150° |
| 2026-05-05 04:54 | 35.46316 | 139.83775 | 3653 ft | 260 kts | 150° |
| 2026-05-05 04:54 | 35.44735 | 139.84890 | 4569 ft | 262 kts | 151° |
| 2026-05-05 04:55 | 35.43121 | 139.85991 | 5396 ft | 269 kts | 158° |
| 2026-05-05 04:55 | 35.41286 | 139.86360 | 6196 ft | 272 kts | 189° |
| 2026-05-05 04:55 | 35.39540 | 139.85517 | 6995 ft | 274 kts | 219° |
| 2026-05-05 04:55 | 35.38302 | 139.83777 | 7767 ft | 276 kts | 240° |
| 2026-05-05 04:56 | 35.37337 | 139.81716 | 8561 ft | 280 kts | 249° |
| 2026-05-05 04:56 | 35.37000 | 139.79443 | 9328 ft | 279 kts | 278° |
| 2026-05-05 04:56 | 35.37563 | 139.77240 | 10183 ft | 276 kts | 302° |
| 2026-05-05 04:56 | 35.38831 | 139.75412 | 10576 ft | 294 kts | 323° |
| 2026-05-05 04:57 | 35.40593 | 139.73955 | 10755 ft | 318 kts | 327° |
| 2026-05-05 04:57 | 35.42350 | 139.72170 | 10936 ft | 340 kts | 308° |
| 2026-05-05 04:57 | 35.43451 | 139.69682 | 11488 ft | 349 kts | 292° |
| 2026-05-05 04:57 | 35.44211 | 139.66850 | 12305 ft | 350 kts | 288° |
| 2026-05-05 04:58 | 35.44910 | 139.64013 | 13208 ft | 348 kts | 288° |
| 2026-05-05 04:58 | 35.45613 | 139.61172 | 13994 ft | 350 kts | 288° |
| 2026-05-05 04:58 | 35.46341 | 139.58302 | 14637 ft | 353 kts | 288° |
| 2026-05-05 04:58 | 35.47084 | 139.55423 | 15270 ft | 356 kts | 288° |
| 2026-05-05 04:59 | 35.47839 | 139.52520 | 15951 ft | 358 kts | 288° |
| 2026-05-05 04:59 | 35.48520 | 139.49605 | 16549 ft | 362 kts | 281° |
| 2026-05-05 04:59 | 35.48738 | 139.46500 | 17191 ft | 366 kts | 274° |
| 2026-05-05 04:59 | 35.48829 | 139.43374 | 17864 ft | 368 kts | 273° |
| 2026-05-05 05:00 | 35.48915 | 139.40218 | 18504 ft | 371 kts | 273° |
| 2026-05-05 05:00 | 35.49014 | 139.37036 | 19012 ft | 375 kts | 273° |
| 2026-05-05 05:00 | 35.49127 | 139.33825 | 19664 ft | 374 kts | 274° |
| 2026-05-05 05:00 | 35.49246 | 139.30672 | 20279 ft | 374 kts | 273° |
| 2026-05-05 05:01 | 35.49371 | 139.27477 | 20887 ft | 375 kts | 273° |
| 2026-05-05 05:01 | 35.49498 | 139.24251 | 21395 ft | 378 kts | 273° |
| 2026-05-05 05:01 | 35.49626 | 139.21021 | 21946 ft | 380 kts | 273° |
| 2026-05-05 05:01 | 35.49753 | 139.17762 | 22456 ft | 382 kts | 273° |
| 2026-05-05 05:02 | 35.49814 | 139.14501 | 22938 ft | 385 kts | 269° |
| 2026-05-05 05:02 | 35.49690 | 139.11210 | 23477 ft | 386 kts | 267° |
| 2026-05-05 05:02 | 35.49500 | 139.07982 | 24132 ft | 381 kts | 266° |
| 2026-05-05 05:02 | 35.49304 | 139.04790 | 25076 ft | 367 kts | 265° |
| 2026-05-05 05:03 | 35.49127 | 139.01737 | 26153 ft | 352 kts | 265° |
| 2026-05-05 05:03 | 35.48967 | 138.98791 | 27076 ft | 341 kts | 265° |
| 2026-05-05 05:03 | 35.48819 | 138.95911 | 27767 ft | 336 kts | 264° |
| 2026-05-05 05:03 | 35.48674 | 138.93056 | 28148 ft | 336 kts | 264° |
| 2026-05-05 05:04 | 35.48528 | 138.90157 | 28158 ft | 343 kts | 264° |
| 2026-05-05 05:04 | 35.48240 | 138.84337 | 28205 ft | 340 kts | 264° |
| 2026-05-05 05:05 | 35.47950 | 138.78558 | 28188 ft | 341 kts | 264° |
| 2026-05-05 05:05 | 35.47657 | 138.72740 | 28188 ft | 342 kts | 264° |
| 2026-05-05 05:06 | 35.47358 | 138.66898 | 28188 ft | 344 kts | 264° |
| 2026-05-05 05:06 | 35.46949 | 138.61037 | 28188 ft | 344 kts | 261° |
| 2026-05-05 05:07 | 35.46279 | 138.55263 | 28184 ft | 344 kts | 260° |
| 2026-05-05 05:07 | 35.45583 | 138.49458 | 28173 ft | 344 kts | 261° |
| 2026-05-05 05:08 | 35.44903 | 138.43672 | 28169 ft | 342 kts | 260° |
| 2026-05-05 05:08 | 35.44234 | 138.37950 | 28231 ft | 333 kts | 261° |
| 2026-05-05 05:09 | 35.43580 | 138.32309 | 28189 ft | 337 kts | 261° |
| 2026-05-05 05:09 | 35.42936 | 138.26617 | 28237 ft | 338 kts | 261° |
| 2026-05-05 05:10 | 35.42261 | 138.20822 | 28155 ft | 349 kts | 261° |
| 2026-05-05 05:10 | 35.41559 | 138.14958 | 28176 ft | 346 kts | 260° |
| 2026-05-05 05:11 | 35.40869 | 138.09094 | 28217 ft | 350 kts | 261° |
| 2026-05-05 05:11 | 35.40182 | 138.03168 | 28198 ft | 350 kts | 261° |
| 2026-05-05 05:12 | 35.39492 | 137.97292 | 28180 ft | 347 kts | 261° |
| 2026-05-05 05:12 | 35.38808 | 137.91504 | 28179 ft | 344 kts | 261° |
| 2026-05-05 05:13 | 35.38121 | 137.85709 | 28196 ft | 342 kts | 261° |
| 2026-05-05 05:13 | 35.37431 | 137.79937 | 28171 ft | 342 kts | 261° |
| 2026-05-05 05:14 | 35.36739 | 137.74171 | 28171 ft | 344 kts | 260° |
| 2026-05-05 05:14 | 35.36040 | 137.68378 | 28187 ft | 343 kts | 261° |
| 2026-05-05 05:15 | 35.35344 | 137.62608 | 28155 ft | 346 kts | 261° |
| 2026-05-05 05:15 | 35.34630 | 137.56771 | 28181 ft | 348 kts | 260° |
| 2026-05-05 05:16 | 35.33911 | 137.50878 | 28186 ft | 350 kts | 261° |
| 2026-05-05 05:16 | 35.33191 | 137.44977 | 28175 ft | 351 kts | 260° |
| 2026-05-05 05:17 | 35.32460 | 137.39053 | 28178 ft | 351 kts | 260° |
| 2026-05-05 05:17 | 35.31734 | 137.33138 | 28176 ft | 350 kts | 260° |
| 2026-05-05 05:18 | 35.31004 | 137.27281 | 28175 ft | 349 kts | 260° |
| 2026-05-05 05:18 | 35.30272 | 137.21415 | 28178 ft | 347 kts | 260° |
| 2026-05-05 05:19 | 35.29541 | 137.15573 | 28171 ft | 347 kts | 260° |
| 2026-05-05 05:19 | 35.28809 | 137.09745 | 28174 ft | 346 kts | 260° |
| 2026-05-05 05:20 | 35.28075 | 137.03929 | 28184 ft | 349 kts | 260° |
| 2026-05-05 05:20 | 35.27324 | 136.97986 | 28182 ft | 355 kts | 260° |
| 2026-05-05 05:21 | 35.26563 | 136.92037 | 28172 ft | 352 kts | 259° |
| 2026-05-05 05:21 | 35.25373 | 136.86276 | 28173 ft | 350 kts | 255° |
| 2026-05-05 05:22 | 35.24063 | 136.80528 | 28173 ft | 350 kts | 255° |
| 2026-05-05 05:22 | 35.22760 | 136.74779 | 28169 ft | 350 kts | 255° |
| 2026-05-05 05:23 | 35.21461 | 136.69024 | 28174 ft | 350 kts | 255° |
| 2026-05-05 05:23 | 35.20174 | 136.63315 | 28172 ft | 351 kts | 255° |
| 2026-05-05 05:24 | 35.18877 | 136.57574 | 28169 ft | 350 kts | 255° |
| 2026-05-05 05:24 | 35.17580 | 136.51845 | 28157 ft | 349 kts | 255° |
| 2026-05-05 05:25 | 35.16283 | 136.46133 | 28195 ft | 348 kts | 254° |
| 2026-05-05 05:25 | 35.14979 | 136.40404 | 28157 ft | 350 kts | 255° |
| 2026-05-05 05:26 | 35.13678 | 136.34690 | 28171 ft | 347 kts | 254° |
| 2026-05-05 05:26 | 35.12390 | 136.29055 | 28183 ft | 346 kts | 254° |
| 2026-05-05 05:27 | 35.11085 | 136.23355 | 28182 ft | 351 kts | 254° |
| 2026-05-05 05:27 | 35.09097 | 136.14690 | 28160 ft | 351 kts | 254° |
| 2026-05-05 05:28 | 35.07780 | 136.08961 | 28156 ft | 349 kts | 254° |
| 2026-05-05 05:28 | 35.06475 | 136.03291 | 28171 ft | 348 kts | 254° |
| 2026-05-05 05:29 | 35.05162 | 135.97597 | 28165 ft | 348 kts | 254° |
| 2026-05-05 05:29 | 35.03850 | 135.91905 | 28159 ft | 349 kts | 254° |
| 2026-05-05 05:30 | 35.02538 | 135.86224 | 28159 ft | 350 kts | 254° |
| 2026-05-05 05:30 | 35.01270 | 135.80484 | 28157 ft | 350 kts | 256° |
| 2026-05-05 05:31 | 35.00199 | 135.74655 | 28165 ft | 351 kts | 257° |
| 2026-05-05 05:31 | 34.99160 | 135.68875 | 28154 ft | 350 kts | 257° |
| 2026-05-05 05:32 | 34.98105 | 135.63100 | 28141 ft | 347 kts | 257° |
| 2026-05-05 05:32 | 34.97044 | 135.57363 | 28137 ft | 346 kts | 256° |
| 2026-05-05 05:33 | 34.95988 | 135.51682 | 28164 ft | 344 kts | 256° |
| 2026-05-05 05:33 | 34.94916 | 135.45925 | 28173 ft | 354 kts | 257° |
| 2026-05-05 05:34 | 34.93821 | 135.40055 | 28158 ft | 354 kts | 256° |
| 2026-05-05 05:34 | 34.92718 | 135.34204 | 28163 ft | 353 kts | 256° |
| 2026-05-05 05:35 | 34.91582 | 135.28406 | 28147 ft | 351 kts | 256° |
| 2026-05-05 05:35 | 34.90446 | 135.22635 | 28150 ft | 350 kts | 256° |
| 2026-05-05 05:36 | 34.89317 | 135.16906 | 28154 ft | 349 kts | 256° |
| 2026-05-05 05:36 | 34.88186 | 135.11166 | 28158 ft | 349 kts | 256° |
| 2026-05-05 05:37 | 34.87051 | 135.05413 | 28155 ft | 349 kts | 256° |
| 2026-05-05 05:37 | 34.86105 | 135.00636 | 28158 ft | 349 kts | 256° |
| 2026-05-05 05:38 | 34.84996 | 134.94869 | 28173 ft | 350 kts | 256° |
| 2026-05-05 05:38 | 34.83918 | 134.89103 | 28161 ft | 352 kts | 256° |
| 2026-05-05 05:39 | 34.82819 | 134.83257 | 28175 ft | 352 kts | 256° |
| 2026-05-05 05:39 | 34.81727 | 134.77479 | 28157 ft | 352 kts | 256° |
| 2026-05-05 05:40 | 34.80629 | 134.71682 | 28150 ft | 349 kts | 256° |
| 2026-05-05 05:40 | 34.79538 | 134.65946 | 28175 ft | 346 kts | 256° |
| 2026-05-05 05:41 | 34.78445 | 134.60256 | 28180 ft | 347 kts | 256° |
| 2026-05-05 05:41 | 34.77331 | 134.54479 | 28179 ft | 353 kts | 256° |
| 2026-05-05 05:42 | 34.76219 | 134.48718 | 28177 ft | 350 kts | 256° |
| 2026-05-05 05:42 | 34.75112 | 134.42989 | 28172 ft | 346 kts | 256° |
| 2026-05-05 05:43 | 34.74028 | 134.37304 | 28172 ft | 346 kts | 256° |
| 2026-05-05 05:43 | 34.72939 | 134.31603 | 28181 ft | 346 kts | 256° |
| 2026-05-05 05:44 | 34.71839 | 134.25867 | 28169 ft | 349 kts | 256° |
| 2026-05-05 05:44 | 34.70731 | 134.20117 | 28165 ft | 350 kts | 256° |
| 2026-05-05 05:45 | 34.69612 | 134.14361 | 28171 ft | 349 kts | 256° |
| 2026-05-05 05:45 | 34.68499 | 134.08660 | 28168 ft | 348 kts | 256° |
| 2026-05-05 05:46 | 34.67386 | 134.02953 | 28158 ft | 346 kts | 256° |
| 2026-05-05 05:46 | 34.65884 | 133.97349 | 28165 ft | 352 kts | 250° |
| 2026-05-05 05:47 | 34.64154 | 133.91796 | 28147 ft | 347 kts | 250° |
| 2026-05-05 05:47 | 34.62473 | 133.86380 | 28163 ft | 346 kts | 250° |
| 2026-05-05 05:48 | 34.60776 | 133.80874 | 28176 ft | 349 kts | 250° |
| 2026-05-05 05:48 | 34.59068 | 133.75329 | 28163 ft | 352 kts | 250° |
| 2026-05-05 05:49 | 34.57346 | 133.69741 | 28141 ft | 353 kts | 250° |
| 2026-05-05 05:49 | 34.55648 | 133.64246 | 28149 ft | 345 kts | 250° |
| 2026-05-05 05:50 | 34.53931 | 133.58793 | 28170 ft | 351 kts | 249° |
| 2026-05-05 05:50 | 34.52122 | 133.53313 | 28184 ft | 347 kts | 249° |
| 2026-05-05 05:51 | 34.50322 | 133.47874 | 28157 ft | 347 kts | 249° |
| 2026-05-05 05:51 | 34.48532 | 133.42438 | 28157 ft | 346 kts | 249° |
| 2026-05-05 05:52 | 34.46747 | 133.37008 | 28166 ft | 347 kts | 249° |
| 2026-05-05 05:52 | 34.45029 | 133.31544 | 28166 ft | 347 kts | 250° |
| 2026-05-05 05:53 | 34.43321 | 133.26104 | 28166 ft | 348 kts | 249° |
| 2026-05-05 05:53 | 34.41590 | 133.20616 | 28175 ft | 350 kts | 249° |
| 2026-05-05 05:54 | 34.39835 | 133.15085 | 28172 ft | 351 kts | 249° |
| 2026-05-05 05:54 | 34.38067 | 133.09557 | 28152 ft | 351 kts | 249° |
| 2026-05-05 05:55 | 34.36313 | 133.04048 | 28157 ft | 350 kts | 249° |
| 2026-05-05 05:55 | 34.34553 | 132.98551 | 28156 ft | 350 kts | 249° |
| 2026-05-05 05:56 | 34.32804 | 132.93086 | 28149 ft | 350 kts | 249° |
| 2026-05-05 05:56 | 34.31041 | 132.87593 | 28155 ft | 349 kts | 249° |
| 2026-05-05 05:57 | 34.29300 | 132.82101 | 28158 ft | 349 kts | 249° |
| 2026-05-05 05:57 | 34.27566 | 132.76601 | 28162 ft | 349 kts | 249° |
| 2026-05-05 05:58 | 34.25839 | 132.71144 | 28142 ft | 350 kts | 249° |
| 2026-05-05 05:58 | 34.24103 | 132.65668 | 28147 ft | 347 kts | 249° |
| 2026-05-05 05:59 | 34.22370 | 132.60218 | 28171 ft | 348 kts | 249° |
| 2026-05-05 05:59 | 34.20111 | 132.55042 | 28196 ft | 351 kts | 237° |
| 2026-05-05 06:00 | 34.16856 | 132.50624 | 28128 ft | 352 kts | 231° |
| 2026-05-05 06:00 | 34.13432 | 132.46391 | 28180 ft | 351 kts | 229° |
| 2026-05-05 06:01 | 34.09945 | 132.42242 | 28175 ft | 352 kts | 229° |
| 2026-05-05 06:01 | 34.06477 | 132.38036 | 28182 ft | 353 kts | 229° |
| 2026-05-05 06:02 | 34.03004 | 132.33831 | 28152 ft | 354 kts | 229° |
| 2026-05-05 06:02 | 33.99541 | 132.29665 | 28146 ft | 353 kts | 229° |
| 2026-05-05 06:03 | 33.96049 | 132.25467 | 28153 ft | 352 kts | 229° |
| 2026-05-05 06:03 | 33.92615 | 132.21320 | 28144 ft | 355 kts | 223° |
| 2026-05-05 06:04 | 33.88438 | 132.18064 | 28175 ft | 360 kts | 214° |
| 2026-05-05 06:04 | 33.83910 | 132.15424 | 28164 ft | 361 kts | 212° |
| 2026-05-05 06:05 | 33.79386 | 132.12833 | 28162 ft | 359 kts | 213° |
| 2026-05-05 06:05 | 33.74935 | 132.10223 | 28168 ft | 358 kts | 213° |
| 2026-05-05 06:06 | 33.70470 | 132.07590 | 28159 ft | 357 kts | 214° |
| 2026-05-05 06:06 | 33.66048 | 132.05025 | 28146 ft | 343 kts | 213° |
| 2026-05-05 06:07 | 33.63909 | 132.03790 | 27871 ft | 337 kts | 214° |
| 2026-05-05 06:07 | 33.61821 | 132.02581 | 27515 ft | 332 kts | 213° |
| 2026-05-05 06:07 | 33.59753 | 132.01380 | 27181 ft | 328 kts | 213° |
| 2026-05-05 06:07 | 33.57706 | 132.00191 | 26769 ft | 325 kts | 213° |
| 2026-05-05 06:08 | 33.55673 | 131.99010 | 26390 ft | 323 kts | 213° |
| 2026-05-05 06:08 | 33.53681 | 131.97853 | 26023 ft | 321 kts | 213° |
| 2026-05-05 06:08 | 33.51674 | 131.96691 | 25640 ft | 320 kts | 212° |
| 2026-05-05 06:08 | 33.49669 | 131.95531 | 25229 ft | 319 kts | 212° |
| 2026-05-05 06:09 | 33.47683 | 131.94353 | 24828 ft | 317 kts | 215° |
| 2026-05-05 06:09 | 33.45844 | 131.92897 | 24166 ft | 321 kts | 222° |
| 2026-05-05 06:09 | 33.44061 | 131.91204 | 23514 ft | 328 kts | 222° |
| 2026-05-05 06:09 | 33.42287 | 131.89501 | 23031 ft | 327 kts | 223° |
| 2026-05-05 06:10 | 33.40520 | 131.87815 | 22676 ft | 323 kts | 223° |
| 2026-05-05 06:10 | 33.38769 | 131.86145 | 22282 ft | 321 kts | 223° |
| 2026-05-05 06:10 | 33.37025 | 131.84487 | 21905 ft | 318 kts | 222° |
| 2026-05-05 06:10 | 33.35295 | 131.82846 | 21533 ft | 316 kts | 222° |
| 2026-05-05 06:11 | 33.33577 | 131.81220 | 21169 ft | 314 kts | 221° |
| 2026-05-05 06:11 | 33.31867 | 131.79604 | 20805 ft | 312 kts | 221° |
| 2026-05-05 06:11 | 33.30168 | 131.77999 | 20452 ft | 311 kts | 221° |
| 2026-05-05 06:11 | 33.28476 | 131.76403 | 20087 ft | 309 kts | 221° |
| 2026-05-05 06:12 | 33.26786 | 131.74809 | 19704 ft | 308 kts | 221° |
| 2026-05-05 06:12 | 33.25100 | 131.73221 | 19347 ft | 307 kts | 220° |
| 2026-05-05 06:12 | 33.23426 | 131.71630 | 18973 ft | 306 kts | 223° |
| 2026-05-05 06:12 | 33.21983 | 131.69816 | 18613 ft | 305 kts | 232° |
| 2026-05-05 06:13 | 33.20802 | 131.67685 | 18081 ft | 309 kts | 242° |
| 2026-05-05 06:13 | 33.19804 | 131.65422 | 17690 ft | 308 kts | 242° |
| 2026-05-05 06:13 | 33.18818 | 131.63146 | 17324 ft | 306 kts | 242° |
| 2026-05-05 06:13 | 33.17841 | 131.60894 | 16956 ft | 305 kts | 242° |
| 2026-05-05 06:14 | 33.16864 | 131.58656 | 16595 ft | 303 kts | 242° |
| 2026-05-05 06:14 | 33.15889 | 131.56432 | 16260 ft | 301 kts | 242° |
| 2026-05-05 06:14 | 33.14917 | 131.54225 | 15921 ft | 300 kts | 242° |
| 2026-05-05 06:14 | 33.13945 | 131.52021 | 15588 ft | 299 kts | 242° |
| 2026-05-05 06:15 | 33.12991 | 131.49861 | 15241 ft | 298 kts | 242° |
| 2026-05-05 06:15 | 33.12018 | 131.47685 | 14911 ft | 296 kts | 241° |
| 2026-05-05 06:15 | 33.11030 | 131.45524 | 14577 ft | 295 kts | 241° |
| 2026-05-05 06:15 | 33.10044 | 131.43374 | 14230 ft | 295 kts | 241° |
| 2026-05-05 06:16 | 33.09059 | 131.41223 | 13856 ft | 296 kts | 241° |
| 2026-05-05 06:16 | 33.08067 | 131.39057 | 13397 ft | 298 kts | 241° |
| 2026-05-05 06:16 | 33.07078 | 131.36895 | 13069 ft | 297 kts | 240° |
| 2026-05-05 06:16 | 33.06093 | 131.34716 | 12783 ft | 304 kts | 241° |
| 2026-05-05 06:17 | 33.05077 | 131.32441 | 12279 ft | 313 kts | 241° |
| 2026-05-05 06:17 | 33.04060 | 131.30167 | 11815 ft | 314 kts | 241° |
| 2026-05-05 06:17 | 33.03033 | 131.27873 | 11398 ft | 313 kts | 241° |
| 2026-05-05 06:17 | 33.02075 | 131.25549 | 10973 ft | 311 kts | 251° |
| 2026-05-05 06:18 | 33.01800 | 131.23032 | 10568 ft | 305 kts | 271° |
| 2026-05-05 06:18 | 33.02053 | 131.20554 | 10190 ft | 298 kts | 276° |
| 2026-05-05 06:18 | 33.02371 | 131.18145 | 9882 ft | 288 kts | 277° |
| 2026-05-05 06:18 | 33.02681 | 131.15838 | 9433 ft | 284 kts | 277° |
| 2026-05-05 06:19 | 33.02981 | 131.13546 | 9040 ft | 278 kts | 277° |
| 2026-05-05 06:19 | 33.03270 | 131.11279 | 8656 ft | 273 kts | 277° |
| 2026-05-05 06:19 | 33.03552 | 131.09039 | 8303 ft | 274 kts | 275° |
| 2026-05-05 06:19 | 33.03831 | 131.06782 | 7933 ft | 276 kts | 276° |
| 2026-05-05 06:20 | 33.04109 | 131.04513 | 7569 ft | 278 kts | 277° |
| 2026-05-05 06:20 | 33.04384 | 131.02280 | 7196 ft | 274 kts | 276° |
| 2026-05-05 06:20 | 33.04656 | 131.00056 | 6846 ft | 269 kts | 276° |
| 2026-05-05 06:20 | 33.04924 | 130.97871 | 6475 ft | 264 kts | 277° |
| 2026-05-05 06:21 | 33.05152 | 130.95716 | 6103 ft | 259 kts | 270° |
| 2026-05-05 06:21 | 33.04985 | 130.93612 | 5774 ft | 252 kts | 253° |
| 2026-05-05 06:21 | 33.04357 | 130.91692 | 5454 ft | 248 kts | 239° |
| 2026-05-05 06:21 | 33.03367 | 130.90047 | 5135 ft | 241 kts | 226° |
| 2026-05-05 06:22 | 33.02231 | 130.88619 | 4809 ft | 232 kts | 219° |
| 2026-05-05 06:22 | 33.00920 | 130.87758 | 4527 ft | 208 kts | 191° |
| 2026-05-05 06:22 | 32.99520 | 130.87708 | 4294 ft | 194 kts | 182° |
| 2026-05-05 06:22 | 32.98286 | 130.87220 | 4070 ft | 182 kts | 204° |
| 2026-05-05 06:23 | 32.97098 | 130.87048 | 3828 ft | 170 kts | 164° |
| 2026-05-05 06:23 | 32.96057 | 130.87731 | 3663 ft | 175 kts | 145° |
| 2026-05-05 06:23 | 32.95041 | 130.88521 | 3412 ft | 172 kts | 153° |
| 2026-05-05 06:23 | 32.94096 | 130.89336 | 3203 ft | 168 kts | 142° |
| 2026-05-05 06:24 | 32.93243 | 130.90217 | 2979 ft | 152 kts | 145° |
| 2026-05-05 06:24 | 32.92454 | 130.91000 | 2919 ft | 158 kts | 144° |
| 2026-05-05 06:24 | 32.91587 | 130.91810 | 2856 ft | 156 kts | 148° |
| 2026-05-05 06:24 | 32.90642 | 130.92372 | 2765 ft | 148 kts | 169° |
| 2026-05-05 06:25 | 32.89649 | 130.92594 | 2555 ft | 145 kts | 179° |
| 2026-05-05 06:25 | 32.88635 | 130.92640 | 2319 ft | 148 kts | 188° |
| 2026-05-05 06:25 | 32.87629 | 130.92395 | 1973 ft | 144 kts | 206° |
| 2026-05-05 06:25 | 32.86785 | 130.91805 | 1709 ft | 144 kts | 221° |
| 2026-05-05 06:26 | 32.86070 | 130.90977 | 1456 ft | 141 kts | 233° |
| 2026-05-05 06:26 | 32.85528 | 130.90025 | 1259 ft | 138 kts | 245° |
| 2026-05-05 06:26 | 32.85125 | 130.88999 | 1069 ft | 136 kts | 250° |
| 2026-05-05 06:26 | 32.84731 | 130.87993 | 902 ft | 137 kts | 248° |
| 2026-05-05 06:27 | 32.84314 | 130.86957 | 696 ft | 140 kts | 248° |
| 2026-05-05 06:27 | 32.83598 | 130.85167 | 625 ft | 80 kts | 244° |
| 2026-05-05 06:27 | 32.83415 | 130.84715 | 614 ft | 54 kts | 244° |
| 2026-05-05 06:28 | 32.83328 | 130.84557 | 618 ft | 14 kts | 186° |
| 2026-05-05 06:28 | 32.83239 | 130.84596 | 617 ft | 13 kts | 153° |
| 2026-05-05 06:28 | 32.83217 | 130.84686 | 621 ft | 13 kts | 67° |
| 2026-05-05 06:28 | 32.83243 | 130.84749 | 616 ft | 13 kts | 64° |
| 2026-05-05 06:29 | 32.83292 | 130.84873 | 627 ft | 12 kts | 64° |
| 2026-05-05 06:29 | 32.83329 | 130.84963 | 619 ft | 12 kts | 64° |
| 2026-05-05 06:29 | 32.83353 | 130.85022 | 632 ft | 12 kts | 64° |
| 2026-05-05 06:29 | 32.83388 | 130.85108 | 632 ft | 11 kts | 64° |
| 2026-05-05 06:30 | 32.83421 | 130.85193 | 625 ft | 11 kts | 65° |
| 2026-05-05 06:30 | 32.83454 | 130.85275 | 638 ft | 11 kts | 65° |
| 2026-05-05 06:30 | 32.83486 | 130.85355 | 637 ft | 11 kts | 64° |
| 2026-05-05 06:30 | 32.83517 | 130.85433 | 636 ft | 11 kts | 64° |
| 2026-05-05 06:31 | 32.83548 | 130.85511 | 635 ft | 10 kts | 64° |
| 2026-05-05 06:31 | 32.83578 | 130.85586 | 633 ft | 10 kts | 65° |
| 2026-05-05 06:31 | 32.83607 | 130.85659 | 637 ft | 10 kts | 65° |
| 2026-05-05 06:31 | 32.83620 | 130.85723 | 632 ft | 8 kts | 118° |
| 2026-05-05 06:32 | 32.83576 | 130.85758 | 636 ft | 8 kts | 155° |
| 2026-05-05 06:32 | 32.83531 | 130.85783 | 634 ft | 1 kts | 155° |
| 2026-05-05 06:32 | 32.83530 | 130.85784 | 637 ft | 0 kts | 155° |